sensor_id;sensor_type;location;lat;lon;timestamp;P1;durP1;ratioP1;P2;durP2;ratioP2
47523;SDS011;33253;42.144;25.884;2022-10-19T00:01:58;9.27;;;4.30;;
47523;SDS011;33253;42.144;25.884;2022-10-19T00:04:24;9.77;;;4.13;;
47523;SDS011;33253;42.144;25.884;2022-10-19T00:06:50;9.50;;;3.55;;
47523;SDS011;33253;42.144;25.884;2022-10-19T00:09:16;17.02;;;5.25;;
47523;SDS011;33253;42.144;25.884;2022-10-19T00:11:45;17.83;;;5.38;;
47523;SDS011;33253;42.144;25.884;2022-10-19T00:14:13;16.98;;;10.10;;
47523;SDS011;33253;42.144;25.884;2022-10-19T00:16:42;20.00;;;8.23;;
47523;SDS011;33253;42.144;25.884;2022-10-19T00:19:11;14.75;;;5.50;;
47523;SDS011;33253;42.144;25.884;2022-10-19T00:21:41;13.00;;;5.50;;
47523;SDS011;33253;42.144;25.884;2022-10-19T00:24:07;17.13;;;4.90;;
47523;SDS011;33253;42.144;25.884;2022-10-19T00:26:33;13.48;;;6.20;;
47523;SDS011;33253;42.144;25.884;2022-10-19T00:28:58;18.70;;;5.05;;
47523;SDS011;33253;42.144;25.884;2022-10-19T00:31:24;8.80;;;4.70;;
47523;SDS011;33253;42.144;25.884;2022-10-19T00:33:50;13.52;;;4.80;;
47523;SDS011;33253;42.144;25.884;2022-10-19T00:36:18;9.85;;;4.65;;
47523;SDS011;33253;42.144;25.884;2022-10-19T00:38:45;14.80;;;4.57;;
47523;SDS011;33253;42.144;25.884;2022-10-19T00:41:11;13.95;;;4.57;;
47523;SDS011;33253;42.144;25.884;2022-10-19T00:46:27;15.15;;;5.38;;
47523;SDS011;33253;42.144;25.884;2022-10-19T00:48:56;15.77;;;4.72;;
47523;SDS011;33253;42.144;25.884;2022-10-19T00:51:28;10.88;;;4.25;;
47523;SDS011;33253;42.144;25.884;2022-10-19T00:53:56;11.30;;;4.55;;
47523;SDS011;33253;42.144;25.884;2022-10-19T00:56:22;15.93;;;4.32;;
47523;SDS011;33253;42.144;25.884;2022-10-19T01:01:24;10.77;;;4.35;;
47523;SDS011;33253;42.144;25.884;2022-10-19T01:03:52;13.90;;;4.55;;
47523;SDS011;33253;42.144;25.884;2022-10-19T01:06:18;14.85;;;4.82;;
47523;SDS011;33253;42.144;25.884;2022-10-19T01:08:44;15.10;;;5.25;;
47523;SDS011;33253;42.144;25.884;2022-10-19T01:31:47;14.60;;;4.22;;
47523;SDS011;33253;42.144;25.884;2022-10-19T01:36:57;18.15;;;4.60;;
47523;SDS011;33253;42.144;25.884;2022-10-19T01:42:59;16.40;;;5.05;;
47523;SDS011;33253;42.144;25.884;2022-10-19T01:45:41;9.25;;;4.70;;
47523;SDS011;33253;42.144;25.884;2022-10-19T01:48:17;9.65;;;4.20;;
47523;SDS011;33253;42.144;25.884;2022-10-19T01:53:27;9.40;;;4.53;;
47523;SDS011;33253;42.144;25.884;2022-10-19T01:55:56;12.32;;;4.68;;
47523;SDS011;33253;42.144;25.884;2022-10-19T01:58:27;13.18;;;4.57;;
47523;SDS011;33253;42.144;25.884;2022-10-19T02:00:57;13.60;;;4.80;;
47523;SDS011;33253;42.144;25.884;2022-10-19T02:03:27;13.05;;;4.65;;
47523;SDS011;33253;42.144;25.884;2022-10-19T02:05:53;9.15;;;4.75;;
47523;SDS011;33253;42.144;25.884;2022-10-19T02:08:24;11.23;;;4.32;;
47523;SDS011;33253;42.144;25.884;2022-10-19T02:10:53;11.85;;;5.28;;
47523;SDS011;33253;42.144;25.884;2022-10-19T02:13:20;12.13;;;4.68;;
47523;SDS011;33253;42.144;25.884;2022-10-19T02:15:46;11.02;;;5.10;;
47523;SDS011;33253;42.144;25.884;2022-10-19T02:18:17;12.65;;;6.68;;
47523;SDS011;33253;42.144;25.884;2022-10-19T02:20:48;13.63;;;5.50;;
47523;SDS011;33253;42.144;25.884;2022-10-19T02:23:14;11.68;;;6.28;;
47523;SDS011;33253;42.144;25.884;2022-10-19T02:25:43;29.10;;;7.00;;
47523;SDS011;33253;42.144;25.884;2022-10-19T02:28:08;16.50;;;7.25;;
47523;SDS011;33253;42.144;25.884;2022-10-19T02:30:33;18.02;;;6.60;;
47523;SDS011;33253;42.144;25.884;2022-10-19T02:32:59;14.27;;;6.75;;
47523;SDS011;33253;42.144;25.884;2022-10-19T02:35:24;13.05;;;5.68;;
47523;SDS011;33253;42.144;25.884;2022-10-19T02:37:50;11.45;;;5.43;;
47523;SDS011;33253;42.144;25.884;2022-10-19T02:40:15;10.88;;;5.57;;
47523;SDS011;33253;42.144;25.884;2022-10-19T02:42:42;10.40;;;5.22;;
47523;SDS011;33253;42.144;25.884;2022-10-19T02:45:25;13.93;;;5.35;;
47523;SDS011;33253;42.144;25.884;2022-10-19T02:47:57;12.80;;;5.45;;
47523;SDS011;33253;42.144;25.884;2022-10-19T02:50:26;19.25;;;5.68;;
47523;SDS011;33253;42.144;25.884;2022-10-19T02:52:52;13.32;;;5.70;;
47523;SDS011;33253;42.144;25.884;2022-10-19T02:55:17;15.48;;;6.68;;
47523;SDS011;33253;42.144;25.884;2022-10-19T02:57:43;15.10;;;5.63;;
47523;SDS011;33253;42.144;25.884;2022-10-19T03:00:08;13.52;;;5.72;;
47523;SDS011;33253;42.144;25.884;2022-10-19T03:02:35;13.00;;;5.80;;
47523;SDS011;33253;42.144;25.884;2022-10-19T03:05:00;13.95;;;5.32;;
47523;SDS011;33253;42.144;25.884;2022-10-19T03:07:26;11.73;;;5.25;;
47523;SDS011;33253;42.144;25.884;2022-10-19T03:09:51;9.38;;;5.15;;
47523;SDS011;33253;42.144;25.884;2022-10-19T03:12:17;12.23;;;4.88;;
47523;SDS011;33253;42.144;25.884;2022-10-19T03:14:42;9.65;;;4.97;;
47523;SDS011;33253;42.144;25.884;2022-10-19T03:17:08;13.05;;;5.93;;
47523;SDS011;33253;42.144;25.884;2022-10-19T03:19:34;13.25;;;5.97;;
47523;SDS011;33253;42.144;25.884;2022-10-19T03:22:00;9.48;;;5.32;;
47523;SDS011;33253;42.144;25.884;2022-10-19T03:24:26;11.63;;;5.35;;
47523;SDS011;33253;42.144;25.884;2022-10-19T03:26:51;15.70;;;5.55;;
47523;SDS011;33253;42.144;25.884;2022-10-19T03:29:17;13.75;;;5.68;;
47523;SDS011;33253;42.144;25.884;2022-10-19T03:31:42;9.90;;;5.63;;
47523;SDS011;33253;42.144;25.884;2022-10-19T03:34:08;13.38;;;6.10;;
47523;SDS011;33253;42.144;25.884;2022-10-19T03:36:34;15.50;;;6.20;;
47523;SDS011;33253;42.144;25.884;2022-10-19T03:39:03;15.82;;;6.82;;
47523;SDS011;33253;42.144;25.884;2022-10-19T03:41:32;15.65;;;6.35;;
47523;SDS011;33253;42.144;25.884;2022-10-19T03:43:59;11.30;;;5.18;;
47523;SDS011;33253;42.144;25.884;2022-10-19T03:46:25;14.88;;;6.35;;
47523;SDS011;33253;42.144;25.884;2022-10-19T03:48:51;9.25;;;5.43;;
47523;SDS011;33253;42.144;25.884;2022-10-19T03:51:17;13.00;;;5.55;;
47523;SDS011;33253;42.144;25.884;2022-10-19T03:53:45;12.05;;;6.70;;
47523;SDS011;33253;42.144;25.884;2022-10-19T03:56:17;15.75;;;5.63;;
47523;SDS011;33253;42.144;25.884;2022-10-19T03:58:45;10.77;;;5.88;;
47523;SDS011;33253;42.144;25.884;2022-10-19T04:06:11;10.57;;;5.80;;
47523;SDS011;33253;42.144;25.884;2022-10-19T04:08:38;18.35;;;6.13;;
47523;SDS011;33253;42.144;25.884;2022-10-19T04:11:06;15.48;;;6.00;;
47523;SDS011;33253;42.144;25.884;2022-10-19T04:15:59;14.88;;;5.72;;
47523;SDS011;33253;42.144;25.884;2022-10-19T04:18:25;10.90;;;5.45;;
47523;SDS011;33253;42.144;25.884;2022-10-19T04:20:57;14.20;;;5.95;;
47523;SDS011;33253;42.144;25.884;2022-10-19T04:23:25;15.60;;;5.45;;
47523;SDS011;33253;42.144;25.884;2022-10-19T04:25:51;13.85;;;6.05;;
47523;SDS011;33253;42.144;25.884;2022-10-19T04:28:17;16.60;;;6.80;;
47523;SDS011;33253;42.144;25.884;2022-10-19T04:30:43;15.88;;;6.15;;
47523;SDS011;33253;42.144;25.884;2022-10-19T04:33:09;12.80;;;5.80;;
47523;SDS011;33253;42.144;25.884;2022-10-19T04:35:34;14.90;;;5.70;;
47523;SDS011;33253;42.144;25.884;2022-10-19T04:37:59;15.63;;;5.78;;
47523;SDS011;33253;42.144;25.884;2022-10-19T04:40:25;11.23;;;6.00;;
47523;SDS011;33253;42.144;25.884;2022-10-19T04:42:50;16.35;;;5.65;;
47523;SDS011;33253;42.144;25.884;2022-10-19T04:45:15;14.85;;;5.75;;
47523;SDS011;33253;42.144;25.884;2022-10-19T04:47:41;12.43;;;5.65;;
47523;SDS011;33253;42.144;25.884;2022-10-19T04:50:06;13.07;;;6.00;;
47523;SDS011;33253;42.144;25.884;2022-10-19T04:52:32;14.15;;;5.78;;
47523;SDS011;33253;42.144;25.884;2022-10-19T04:54:59;16.73;;;6.43;;
47523;SDS011;33253;42.144;25.884;2022-10-19T04:57:25;22.13;;;6.32;;
47523;SDS011;33253;42.144;25.884;2022-10-19T04:59:51;13.68;;;6.80;;
47523;SDS011;33253;42.144;25.884;2022-10-19T05:02:16;12.85;;;6.10;;
47523;SDS011;33253;42.144;25.884;2022-10-19T05:04:42;18.08;;;6.13;;
47523;SDS011;33253;42.144;25.884;2022-10-19T05:07:07;15.30;;;6.47;;
47523;SDS011;33253;42.144;25.884;2022-10-19T05:09:32;21.17;;;7.85;;
47523;SDS011;33253;42.144;25.884;2022-10-19T05:11:58;13.35;;;5.68;;
47523;SDS011;33253;42.144;25.884;2022-10-19T05:14:23;14.05;;;6.43;;
47523;SDS011;33253;42.144;25.884;2022-10-19T05:16:49;14.25;;;6.43;;
47523;SDS011;33253;42.144;25.884;2022-10-19T05:19:14;18.30;;;6.78;;
47523;SDS011;33253;42.144;25.884;2022-10-19T05:21:39;14.52;;;6.70;;
47523;SDS011;33253;42.144;25.884;2022-10-19T05:24:05;12.75;;;6.45;;
47523;SDS011;33253;42.144;25.884;2022-10-19T05:26:30;16.27;;;7.03;;
47523;SDS011;33253;42.144;25.884;2022-10-19T05:28:57;16.13;;;7.78;;
47523;SDS011;33253;42.144;25.884;2022-10-19T05:31:29;17.13;;;7.43;;
47523;SDS011;33253;42.144;25.884;2022-10-19T05:33:56;12.68;;;6.93;;
47523;SDS011;33253;42.144;25.884;2022-10-19T05:36:26;11.48;;;6.25;;
47523;SDS011;33253;42.144;25.884;2022-10-19T05:38:56;12.80;;;6.40;;
47523;SDS011;33253;42.144;25.884;2022-10-19T05:41:22;14.10;;;8.13;;
47523;SDS011;33253;42.144;25.884;2022-10-19T05:43:53;12.25;;;7.05;;
47523;SDS011;33253;42.144;25.884;2022-10-19T05:46:21;11.77;;;7.07;;
47523;SDS011;33253;42.144;25.884;2022-10-19T05:48:47;12.77;;;7.20;;
47523;SDS011;33253;42.144;25.884;2022-10-19T05:51:15;14.00;;;7.63;;
47523;SDS011;33253;42.144;25.884;2022-10-19T05:53:43;20.10;;;8.18;;
47523;SDS011;33253;42.144;25.884;2022-10-19T05:56:11;23.80;;;9.50;;
47523;SDS011;33253;42.144;25.884;2022-10-19T05:58:39;15.40;;;8.52;;
47523;SDS011;33253;42.144;25.884;2022-10-19T06:01:04;16.73;;;8.93;;
47523;SDS011;33253;42.144;25.884;2022-10-19T06:03:30;15.93;;;7.97;;
47523;SDS011;33253;42.144;25.884;2022-10-19T06:05:56;14.13;;;7.55;;
47523;SDS011;33253;42.144;25.884;2022-10-19T06:08:22;14.98;;;8.85;;
47523;SDS011;33253;42.144;25.884;2022-10-19T06:10:48;20.35;;;9.68;;
47523;SDS011;33253;42.144;25.884;2022-10-19T06:13:15;12.88;;;8.93;;
47523;SDS011;33253;42.144;25.884;2022-10-19T06:15:41;17.02;;;9.68;;
47523;SDS011;33253;42.144;25.884;2022-10-19T06:18:11;12.68;;;9.18;;
47523;SDS011;33253;42.144;25.884;2022-10-19T06:23:04;16.38;;;8.70;;
47523;SDS011;33253;42.144;25.884;2022-10-19T06:25:31;14.35;;;9.02;;
47523;SDS011;33253;42.144;25.884;2022-10-19T06:27:58;14.98;;;9.52;;
47523;SDS011;33253;42.144;25.884;2022-10-19T06:30:24;12.88;;;9.15;;
47523;SDS011;33253;42.144;25.884;2022-10-19T06:32:50;13.13;;;9.27;;
47523;SDS011;33253;42.144;25.884;2022-10-19T06:35:16;13.27;;;9.30;;
47523;SDS011;33253;42.144;25.884;2022-10-19T06:37:41;14.82;;;9.05;;
47523;SDS011;33253;42.144;25.884;2022-10-19T06:40:07;17.92;;;9.45;;
47523;SDS011;33253;42.144;25.884;2022-10-19T06:42:33;16.92;;;9.43;;
47523;SDS011;33253;42.144;25.884;2022-10-19T06:44:58;23.42;;;10.13;;
47523;SDS011;33253;42.144;25.884;2022-10-19T06:47:24;14.95;;;9.50;;
47523;SDS011;33253;42.144;25.884;2022-10-19T06:49:55;17.13;;;10.77;;
47523;SDS011;33253;42.144;25.884;2022-10-19T06:52:21;18.52;;;9.57;;
47523;SDS011;33253;42.144;25.884;2022-10-19T06:54:46;20.13;;;9.57;;
47523;SDS011;33253;42.144;25.884;2022-10-19T06:57:12;18.50;;;9.38;;
47523;SDS011;33253;42.144;25.884;2022-10-19T06:59:37;13.40;;;9.38;;
47523;SDS011;33253;42.144;25.884;2022-10-19T07:02:03;18.25;;;9.20;;
47523;SDS011;33253;42.144;25.884;2022-10-19T07:04:28;14.48;;;8.82;;
47523;SDS011;33253;42.144;25.884;2022-10-19T07:09:29;14.30;;;9.20;;
47523;SDS011;33253;42.144;25.884;2022-10-19T07:11:55;16.73;;;9.30;;
47523;SDS011;33253;42.144;25.884;2022-10-19T07:14:20;12.13;;;8.32;;
47523;SDS011;33253;42.144;25.884;2022-10-19T07:16:48;15.57;;;9.10;;
47523;SDS011;33253;42.144;25.884;2022-10-19T07:19:14;21.25;;;9.55;;
47523;SDS011;33253;42.144;25.884;2022-10-19T07:21:40;15.82;;;9.15;;
47523;SDS011;33253;42.144;25.884;2022-10-19T07:24:08;14.18;;;9.18;;
47523;SDS011;33253;42.144;25.884;2022-10-19T07:26:34;16.85;;;9.20;;
47523;SDS011;33253;42.144;25.884;2022-10-19T07:28:59;12.65;;;8.13;;
47523;SDS011;33253;42.144;25.884;2022-10-19T07:31:27;17.73;;;9.90;;
47523;SDS011;33253;42.144;25.884;2022-10-19T07:33:58;15.65;;;8.32;;
47523;SDS011;33253;42.144;25.884;2022-10-19T07:36:25;17.23;;;8.43;;
47523;SDS011;33253;42.144;25.884;2022-10-19T07:38:52;14.05;;;8.23;;
47523;SDS011;33253;42.144;25.884;2022-10-19T07:41:19;11.18;;;7.65;;
47523;SDS011;33253;42.144;25.884;2022-10-19T07:43:46;16.98;;;8.35;;
47523;SDS011;33253;42.144;25.884;2022-10-19T07:46:14;11.98;;;8.02;;
47523;SDS011;33253;42.144;25.884;2022-10-19T07:48:44;13.07;;;7.50;;
47523;SDS011;33253;42.144;25.884;2022-10-19T07:51:10;11.80;;;8.15;;
47523;SDS011;33253;42.144;25.884;2022-10-19T07:53:37;10.73;;;8.40;;
47523;SDS011;33253;42.144;25.884;2022-10-19T07:58:32;11.93;;;7.47;;
47523;SDS011;33253;42.144;25.884;2022-10-19T08:01:02;12.98;;;7.85;;
47523;SDS011;33253;42.144;25.884;2022-10-19T08:03:31;12.00;;;8.00;;
47523;SDS011;33253;42.144;25.884;2022-10-19T08:05:58;17.40;;;7.75;;
47523;SDS011;33253;42.144;25.884;2022-10-19T08:08:28;14.73;;;7.60;;
47523;SDS011;33253;42.144;25.884;2022-10-19T08:10:53;12.45;;;6.88;;
47523;SDS011;33253;42.144;25.884;2022-10-19T08:13:19;17.65;;;8.32;;
47523;SDS011;33253;42.144;25.884;2022-10-19T08:15:44;17.58;;;7.38;;
47523;SDS011;33253;42.144;25.884;2022-10-19T08:18:10;16.45;;;6.75;;
47523;SDS011;33253;42.144;25.884;2022-10-19T08:20:35;15.77;;;7.30;;
47523;SDS011;33253;42.144;25.884;2022-10-19T08:23:01;10.55;;;6.80;;
47523;SDS011;33253;42.144;25.884;2022-10-19T08:25:27;13.13;;;7.10;;
47523;SDS011;33253;42.144;25.884;2022-10-19T08:27:52;13.32;;;7.30;;
47523;SDS011;33253;42.144;25.884;2022-10-19T08:30:18;10.85;;;5.97;;
47523;SDS011;33253;42.144;25.884;2022-10-19T08:32:43;12.18;;;6.03;;
47523;SDS011;33253;42.144;25.884;2022-10-19T08:35:08;9.07;;;6.05;;
47523;SDS011;33253;42.144;25.884;2022-10-19T08:37:34;11.60;;;5.90;;
47523;SDS011;33253;42.144;25.884;2022-10-19T08:39:59;10.80;;;5.53;;
47523;SDS011;33253;42.144;25.884;2022-10-19T08:42:36;10.75;;;5.40;;
47523;SDS011;33253;42.144;25.884;2022-10-19T08:50:39;11.93;;;5.15;;
47523;SDS011;33253;42.144;25.884;2022-10-19T08:53:21;9.52;;;5.72;;
47523;SDS011;33253;42.144;25.884;2022-10-19T08:56:17;8.32;;;4.95;;
47523;SDS011;33253;42.144;25.884;2022-10-19T09:09:51;11.05;;;4.80;;
47523;SDS011;33253;42.144;25.884;2022-10-19T09:12:20;18.80;;;7.77;;
47523;SDS011;33253;42.144;25.884;2022-10-19T09:14:59;12.65;;;6.57;;
47523;SDS011;33253;42.144;25.884;2022-10-19T09:17:28;11.98;;;5.25;;
47523;SDS011;33253;42.144;25.884;2022-10-19T09:19:55;7.20;;;4.75;;
47523;SDS011;33253;42.144;25.884;2022-10-19T09:22:28;9.20;;;4.80;;
47523;SDS011;33253;42.144;25.884;2022-10-19T09:25:02;11.02;;;4.60;;
47523;SDS011;33253;42.144;25.884;2022-10-19T09:27:59;36.22;;;22.60;;
47523;SDS011;33253;42.144;25.884;2022-10-19T09:30:30;20.80;;;13.70;;
47523;SDS011;33253;42.144;25.884;2022-10-19T09:33:00;7.75;;;4.10;;
47523;SDS011;33253;42.144;25.884;2022-10-19T09:35:35;7.93;;;3.92;;
47523;SDS011;33253;42.144;25.884;2022-10-19T09:38:05;14.05;;;3.92;;
47523;SDS011;33253;42.144;25.884;2022-10-19T09:40:33;6.35;;;3.65;;
47523;SDS011;33253;42.144;25.884;2022-10-19T09:42:59;10.38;;;4.45;;
47523;SDS011;33253;42.144;25.884;2022-10-19T09:47:58;9.05;;;3.60;;
47523;SDS011;33253;42.144;25.884;2022-10-19T09:50:26;9.25;;;3.80;;
47523;SDS011;33253;42.144;25.884;2022-10-19T09:53:04;5.20;;;3.40;;
47523;SDS011;33253;42.144;25.884;2022-10-19T09:55:35;8.82;;;3.70;;
47523;SDS011;33253;42.144;25.884;2022-10-19T10:00:47;24.95;;;3.90;;
47523;SDS011;33253;42.144;25.884;2022-10-19T10:03:34;8.25;;;3.17;;
47523;SDS011;33253;42.144;25.884;2022-10-19T10:06:09;6.47;;;3.50;;
47523;SDS011;33253;42.144;25.884;2022-10-19T10:08:39;9.02;;;3.35;;
47523;SDS011;33253;42.144;25.884;2022-10-19T10:11:15;11.00;;;3.63;;
47523;SDS011;33253;42.144;25.884;2022-10-19T10:13:48;6.22;;;3.40;;
47523;SDS011;33253;42.144;25.884;2022-10-19T10:16:16;11.32;;;3.40;;
47523;SDS011;33253;42.144;25.884;2022-10-19T10:21:21;7.55;;;3.15;;
47523;SDS011;33253;42.144;25.884;2022-10-19T10:26:45;8.40;;;3.10;;
47523;SDS011;33253;42.144;25.884;2022-10-19T10:31:43;6.82;;;2.72;;
47523;SDS011;33253;42.144;25.884;2022-10-19T10:34:10;6.10;;;3.17;;
47523;SDS011;33253;42.144;25.884;2022-10-19T10:36:42;9.52;;;3.20;;
47523;SDS011;33253;42.144;25.884;2022-10-19T10:39:11;8.13;;;3.13;;
47523;SDS011;33253;42.144;25.884;2022-10-19T10:41:42;6.15;;;3.13;;
47523;SDS011;33253;42.144;25.884;2022-10-19T10:44:20;7.70;;;3.33;;
47523;SDS011;33253;42.144;25.884;2022-10-19T10:46:57;10.95;;;3.20;;
47523;SDS011;33253;42.144;25.884;2022-10-19T10:49:27;7.35;;;3.45;;
47523;SDS011;33253;42.144;25.884;2022-10-19T10:52:05;9.75;;;3.25;;
47523;SDS011;33253;42.144;25.884;2022-10-19T10:54:34;10.40;;;2.95;;
47523;SDS011;33253;42.144;25.884;2022-10-19T10:57:14;5.38;;;2.90;;
47523;SDS011;33253;42.144;25.884;2022-10-19T11:02:39;5.40;;;2.97;;
47523;SDS011;33253;42.144;25.884;2022-10-19T11:07:36;7.55;;;3.20;;
47523;SDS011;33253;42.144;25.884;2022-10-19T11:18:40;4.75;;;3.10;;
47523;SDS011;33253;42.144;25.884;2022-10-19T11:29:37;4.07;;;2.55;;
47523;SDS011;33253;42.144;25.884;2022-10-19T11:32:26;5.55;;;2.45;;
47523;SDS011;33253;42.144;25.884;2022-10-19T11:43:45;6.75;;;3.08;;
47523;SDS011;33253;42.144;25.884;2022-10-19T11:54:47;7.80;;;2.33;;
47523;SDS011;33253;42.144;25.884;2022-10-19T11:57:43;5.75;;;2.60;;
47523;SDS011;33253;42.144;25.884;2022-10-19T12:00:17;6.57;;;2.67;;
47523;SDS011;33253;42.144;25.884;2022-10-19T12:02:56;5.35;;;2.40;;
47523;SDS011;33253;42.144;25.884;2022-10-19T12:05:50;4.60;;;2.65;;
47523;SDS011;33253;42.144;25.884;2022-10-19T12:11:11;4.05;;;2.67;;
47523;SDS011;33253;42.144;25.884;2022-10-19T12:14:11;6.30;;;2.45;;
47523;SDS011;33253;42.144;25.884;2022-10-19T12:16:43;6.20;;;2.60;;
47523;SDS011;33253;42.144;25.884;2022-10-19T12:19:15;5.88;;;2.50;;
47523;SDS011;33253;42.144;25.884;2022-10-19T12:21:45;6.63;;;2.50;;
47523;SDS011;33253;42.144;25.884;2022-10-19T12:24:13;5.95;;;2.47;;
47523;SDS011;33253;42.144;25.884;2022-10-19T12:26:42;5.57;;;2.35;;
47523;SDS011;33253;42.144;25.884;2022-10-19T12:29:14;5.03;;;2.40;;
47523;SDS011;33253;42.144;25.884;2022-10-19T12:31:41;6.03;;;2.78;;
47523;SDS011;33253;42.144;25.884;2022-10-19T12:36:54;6.53;;;2.40;;
47523;SDS011;33253;42.144;25.884;2022-10-19T12:42:30;4.80;;;2.80;;
47523;SDS011;33253;42.144;25.884;2022-10-19T12:45:21;7.68;;;2.80;;
47523;SDS011;33253;42.144;25.884;2022-10-19T12:56:00;6.10;;;2.67;;
47523;SDS011;33253;42.144;25.884;2022-10-19T13:01:15;4.80;;;2.35;;
47523;SDS011;33253;42.144;25.884;2022-10-19T13:03:44;7.75;;;2.45;;
47523;SDS011;33253;42.144;25.884;2022-10-19T13:06:14;7.30;;;2.50;;
47523;SDS011;33253;42.144;25.884;2022-10-19T13:11:17;8.48;;;2.35;;
47523;SDS011;33253;42.144;25.884;2022-10-19T13:13:51;5.10;;;2.85;;
47523;SDS011;33253;42.144;25.884;2022-10-19T13:27:14;11.82;;;3.13;;
47523;SDS011;33253;42.144;25.884;2022-10-19T13:43:17;5.28;;;1.98;;
47523;SDS011;33253;42.144;25.884;2022-10-19T13:48:37;8.88;;;2.95;;
47523;SDS011;33253;42.144;25.884;2022-10-19T13:54:02;6.82;;;2.83;;
47523;SDS011;33253;42.144;25.884;2022-10-19T14:11:13;7.05;;;2.67;;
47523;SDS011;33253;42.144;25.884;2022-10-19T14:16:15;12.70;;;2.90;;
47523;SDS011;33253;42.144;25.884;2022-10-19T14:18:43;6.82;;;2.80;;
47523;SDS011;33253;42.144;25.884;2022-10-19T14:21:08;5.80;;;2.65;;
47523;SDS011;33253;42.144;25.884;2022-10-19T14:23:37;6.13;;;2.63;;
47523;SDS011;33253;42.144;25.884;2022-10-19T14:28:29;6.85;;;3.00;;
47523;SDS011;33253;42.144;25.884;2022-10-19T14:31:03;6.57;;;3.10;;
47523;SDS011;33253;42.144;25.884;2022-10-19T14:33:32;8.15;;;2.85;;
47523;SDS011;33253;42.144;25.884;2022-10-19T14:35:59;5.07;;;2.65;;
47523;SDS011;33253;42.144;25.884;2022-10-19T14:38:27;10.43;;;3.00;;
47523;SDS011;33253;42.144;25.884;2022-10-19T14:40:57;8.50;;;2.67;;
47523;SDS011;33253;42.144;25.884;2022-10-19T14:43:23;6.47;;;3.00;;
47523;SDS011;33253;42.144;25.884;2022-10-19T14:48:38;10.55;;;4.25;;
47523;SDS011;33253;42.144;25.884;2022-10-19T14:51:05;10.25;;;3.85;;
47523;SDS011;33253;42.144;25.884;2022-10-19T14:53:43;9.18;;;3.08;;
47523;SDS011;33253;42.144;25.884;2022-10-19T14:59:24;9.18;;;3.97;;
47523;SDS011;33253;42.144;25.884;2022-10-19T15:01:56;24.52;;;4.45;;
47523;SDS011;33253;42.144;25.884;2022-10-19T15:04:25;17.58;;;5.47;;
47523;SDS011;33253;42.144;25.884;2022-10-19T15:06:54;21.08;;;4.40;;
47523;SDS011;33253;42.144;25.884;2022-10-19T15:09:27;17.13;;;3.67;;
47523;SDS011;33253;42.144;25.884;2022-10-19T15:11:57;22.30;;;5.10;;
47523;SDS011;33253;42.144;25.884;2022-10-19T15:14:37;19.05;;;4.85;;
47523;SDS011;33253;42.144;25.884;2022-10-19T15:17:03;26.52;;;5.18;;
47523;SDS011;33253;42.144;25.884;2022-10-19T15:19:44;16.27;;;4.65;;
47523;SDS011;33253;42.144;25.884;2022-10-19T15:22:15;27.38;;;5.82;;
47523;SDS011;33253;42.144;25.884;2022-10-19T15:24:54;26.52;;;6.75;;
47523;SDS011;33253;42.144;25.884;2022-10-19T15:30:22;29.53;;;5.70;;
47523;SDS011;33253;42.144;25.884;2022-10-19T15:32:53;15.27;;;4.15;;
47523;SDS011;33253;42.144;25.884;2022-10-19T15:35:36;19.20;;;4.70;;
47523;SDS011;33253;42.144;25.884;2022-10-19T15:38:05;14.90;;;5.68;;
47523;SDS011;33253;42.144;25.884;2022-10-19T15:40:32;30.52;;;6.00;;
47523;SDS011;33253;42.144;25.884;2022-10-19T15:43:03;12.68;;;4.97;;
47523;SDS011;33253;42.144;25.884;2022-10-19T15:45:57;22.25;;;6.35;;
47523;SDS011;33253;42.144;25.884;2022-10-19T15:48:44;23.73;;;6.10;;
47523;SDS011;33253;42.144;25.884;2022-10-19T15:56:45;29.88;;;5.85;;
47523;SDS011;33253;42.144;25.884;2022-10-19T15:59:18;31.42;;;6.93;;
47523;SDS011;33253;42.144;25.884;2022-10-19T16:01:45;53.65;;;9.32;;
47523;SDS011;33253;42.144;25.884;2022-10-19T16:04:14;41.75;;;10.43;;
47523;SDS011;33253;42.144;25.884;2022-10-19T16:06:41;79.45;;;24.02;;
47523;SDS011;33253;42.144;25.884;2022-10-19T16:09:15;73.47;;;27.05;;
47523;SDS011;33253;42.144;25.884;2022-10-19T16:11:43;57.85;;;23.13;;
47523;SDS011;33253;42.144;25.884;2022-10-19T16:14:08;56.67;;;19.33;;
47523;SDS011;33253;42.144;25.884;2022-10-19T16:16:34;50.55;;;19.92;;
47523;SDS011;33253;42.144;25.884;2022-10-19T16:18:59;36.30;;;17.52;;
47523;SDS011;33253;42.144;25.884;2022-10-19T16:21:27;46.78;;;17.35;;
47523;SDS011;33253;42.144;25.884;2022-10-19T16:23:56;47.83;;;18.98;;
47523;SDS011;33253;42.144;25.884;2022-10-19T16:26:22;45.33;;;18.98;;
47523;SDS011;33253;42.144;25.884;2022-10-19T16:28:49;52.97;;;19.67;;
47523;SDS011;33253;42.144;25.884;2022-10-19T16:31:15;52.60;;;19.17;;
47523;SDS011;33253;42.144;25.884;2022-10-19T16:33:41;52.08;;;18.55;;
47523;SDS011;33253;42.144;25.884;2022-10-19T16:36:07;35.60;;;13.02;;
47523;SDS011;33253;42.144;25.884;2022-10-19T16:38:34;24.83;;;10.23;;
47523;SDS011;33253;42.144;25.884;2022-10-19T16:41:00;27.70;;;12.23;;
47523;SDS011;33253;42.144;25.884;2022-10-19T16:43:33;22.75;;;12.05;;
47523;SDS011;33253;42.144;25.884;2022-10-19T16:46:00;25.48;;;12.00;;
47523;SDS011;33253;42.144;25.884;2022-10-19T16:48:26;23.98;;;11.00;;
47523;SDS011;33253;42.144;25.884;2022-10-19T16:51:14;22.27;;;11.60;;
47523;SDS011;33253;42.144;25.884;2022-10-19T16:53:40;26.42;;;10.70;;
47523;SDS011;33253;42.144;25.884;2022-10-19T16:56:27;24.10;;;10.40;;
47523;SDS011;33253;42.144;25.884;2022-10-19T16:58:57;24.35;;;10.80;;
47523;SDS011;33253;42.144;25.884;2022-10-19T17:01:25;29.77;;;10.48;;
47523;SDS011;33253;42.144;25.884;2022-10-19T17:03:51;17.45;;;8.35;;
47523;SDS011;33253;42.144;25.884;2022-10-19T17:06:17;13.63;;;6.80;;
47523;SDS011;33253;42.144;25.884;2022-10-19T17:08:44;16.95;;;8.55;;
47523;SDS011;33253;42.144;25.884;2022-10-19T17:11:17;14.38;;;8.10;;
47523;SDS011;33253;42.144;25.884;2022-10-19T17:13:46;18.25;;;7.80;;
47523;SDS011;33253;42.144;25.884;2022-10-19T17:16:13;22.58;;;8.32;;
47523;SDS011;33253;42.144;25.884;2022-10-19T17:18:40;19.02;;;7.30;;
47523;SDS011;33253;42.144;25.884;2022-10-19T17:21:11;21.20;;;8.07;;
47523;SDS011;33253;42.144;25.884;2022-10-19T17:23:38;18.10;;;8.27;;
47523;SDS011;33253;42.144;25.884;2022-10-19T17:26:05;17.48;;;8.30;;
47523;SDS011;33253;42.144;25.884;2022-10-19T17:28:33;27.77;;;9.57;;
47523;SDS011;33253;42.144;25.884;2022-10-19T17:31:04;23.38;;;9.98;;
47523;SDS011;33253;42.144;25.884;2022-10-19T17:33:31;24.90;;;10.15;;
47523;SDS011;33253;42.144;25.884;2022-10-19T17:38:29;27.25;;;9.90;;
47523;SDS011;33253;42.144;25.884;2022-10-19T17:40:55;28.02;;;9.52;;
47523;SDS011;33253;42.144;25.884;2022-10-19T17:43:20;21.63;;;9.57;;
47523;SDS011;33253;42.144;25.884;2022-10-19T17:45:45;24.83;;;9.35;;
47523;SDS011;33253;42.144;25.884;2022-10-19T17:48:11;18.70;;;7.50;;
47523;SDS011;33253;42.144;25.884;2022-10-19T17:50:38;29.98;;;8.50;;
47523;SDS011;33253;42.144;25.884;2022-10-19T17:53:03;18.75;;;7.45;;
47523;SDS011;33253;42.144;25.884;2022-10-19T17:55:29;18.92;;;7.28;;
47523;SDS011;33253;42.144;25.884;2022-10-19T17:57:54;15.75;;;7.88;;
47523;SDS011;33253;42.144;25.884;2022-10-19T18:00:20;20.48;;;7.45;;
47523;SDS011;33253;42.144;25.884;2022-10-19T18:02:45;23.10;;;8.13;;